sensor_id;sensor_type;location;lat;lon;timestamp;temperature;humidity
6018;DHT22;3037;51.068;13.780;2023-01-15T00:01:01;9.30;99.90
6018;DHT22;3037;51.068;13.780;2023-01-15T00:03:28;9.20;99.90
6018;DHT22;3037;51.068;13.780;2023-01-15T00:05:54;9.20;99.90
6018;DHT22;3037;51.068;13.780;2023-01-15T00:08:20;9.30;99.90
6018;DHT22;3037;51.068;13.780;2023-01-15T00:10:46;9.30;99.90
6018;DHT22;3037;51.068;13.780;2023-01-15T00:13:11;9.30;99.90
6018;DHT22;3037;51.068;13.780;2023-01-15T00:15:37;9.30;99.90
6018;DHT22;3037;51.068;13.780;2023-01-15T00:18:02;9.20;99.90
6018;DHT22;3037;51.068;13.780;2023-01-15T00:20:28;9.30;99.90
6018;DHT22;3037;51.068;13.780;2023-01-15T00:22:53;9.30;99.90
6018;DHT22;3037;51.068;13.780;2023-01-15T00:25:19;9.30;99.90
6018;DHT22;3037;51.068;13.780;2023-01-15T00:28:04;9.30;99.90
6018;DHT22;3037;51.068;13.780;2023-01-15T00:30:29;9.30;99.90
6018;DHT22;3037;51.068;13.780;2023-01-15T00:32:55;9.30;99.90
6018;DHT22;3037;51.068;13.780;2023-01-15T00:35:22;9.40;99.90
6018;DHT22;3037;51.068;13.780;2023-01-15T00:37:48;9.40;99.90
6018;DHT22;3037;51.068;13.780;2023-01-15T00:40:16;9.40;99.90
6018;DHT22;3037;51.068;13.780;2023-01-15T00:45:09;9.50;99.90
6018;DHT22;3037;51.068;13.780;2023-01-15T00:47:39;9.60;99.90
6018;DHT22;3037;51.068;13.780;2023-01-15T00:50:08;9.70;99.90
6018;DHT22;3037;51.068;13.780;2023-01-15T00:52:34;9.70;99.90
6018;DHT22;3037;51.068;13.780;2023-01-15T00:54:59;9.70;99.90
6018;DHT22;3037;51.068;13.780;2023-01-15T00:57:25;9.90;99.90
6018;DHT22;3037;51.068;13.780;2023-01-15T00:59:50;10.00;99.90
6018;DHT22;3037;51.068;13.780;2023-01-15T01:02:16;10.10;99.90
6018;DHT22;3037;51.068;13.780;2023-01-15T01:04:41;10.20;99.90
6018;DHT22;3037;51.068;13.780;2023-01-15T01:07:07;10.40;99.90
6018;DHT22;3037;51.068;13.780;2023-01-15T01:09:33;10.30;99.90
6018;DHT22;3037;51.068;13.780;2023-01-15T01:11:58;10.30;99.90
6018;DHT22;3037;51.068;13.780;2023-01-15T01:14:24;10.50;99.90
6018;DHT22;3037;51.068;13.780;2023-01-15T01:16:49;10.60;99.90
6018;DHT22;3037;51.068;13.780;2023-01-15T01:19:19;10.50;99.90
6018;DHT22;3037;51.068;13.780;2023-01-15T01:21:45;10.40;99.90
6018;DHT22;3037;51.068;13.780;2023-01-15T01:24:13;10.50;99.90
6018;DHT22;3037;51.068;13.780;2023-01-15T01:26:38;10.60;99.90
6018;DHT22;3037;51.068;13.780;2023-01-15T01:29:04;10.50;99.90
6018;DHT22;3037;51.068;13.780;2023-01-15T01:31:30;10.60;99.90
6018;DHT22;3037;51.068;13.780;2023-01-15T01:33:57;10.50;99.90
6018;DHT22;3037;51.068;13.780;2023-01-15T01:36:31;10.40;99.90
6018;DHT22;3037;51.068;13.780;2023-01-15T01:38:58;10.40;99.90
6018;DHT22;3037;51.068;13.780;2023-01-15T01:41:24;10.40;99.90
6018;DHT22;3037;51.068;13.780;2023-01-15T01:44:05;10.30;99.90
6018;DHT22;3037;51.068;13.780;2023-01-15T01:46:32;10.20;99.90
6018;DHT22;3037;51.068;13.780;2023-01-15T01:49:07;10.20;99.90
6018;DHT22;3037;51.068;13.780;2023-01-15T01:51:43;10.10;99.90
6018;DHT22;3037;51.068;13.780;2023-01-15T01:54:10;10.00;99.90
6018;DHT22;3037;51.068;13.780;2023-01-15T01:56:38;9.80;99.90
6018;DHT22;3037;51.068;13.780;2023-01-15T01:59:05;9.70;99.90
6018;DHT22;3037;51.068;13.780;2023-01-15T02:01:31;9.70;99.90
6018;DHT22;3037;51.068;13.780;2023-01-15T02:03:57;9.70;99.90
6018;DHT22;3037;51.068;13.780;2023-01-15T02:06:24;9.70;99.90
6018;DHT22;3037;51.068;13.780;2023-01-15T02:08:51;9.60;99.90
6018;DHT22;3037;51.068;13.780;2023-01-15T02:11:20;9.60;99.90
6018;DHT22;3037;51.068;13.780;2023-01-15T02:14:15;9.60;99.90
6018;DHT22;3037;51.068;13.780;2023-01-15T02:19:50;9.70;99.90
6018;DHT22;3037;51.068;13.780;2023-01-15T02:25:28;9.70;99.90
6018;DHT22;3037;51.068;13.780;2023-01-15T02:27:55;9.70;99.90
6018;DHT22;3037;51.068;13.780;2023-01-15T02:30:33;9.70;99.90
6018;DHT22;3037;51.068;13.780;2023-01-15T02:33:05;9.80;99.90
6018;DHT22;3037;51.068;13.780;2023-01-15T02:35:37;9.80;99.90
6018;DHT22;3037;51.068;13.780;2023-01-15T02:38:06;9.80;99.90
6018;DHT22;3037;51.068;13.780;2023-01-15T02:40:34;9.80;99.90
6018;DHT22;3037;51.068;13.780;2023-01-15T02:43:00;9.90;99.90
6018;DHT22;3037;51.068;13.780;2023-01-15T02:45:35;10.00;99.90
6018;DHT22;3037;51.068;13.780;2023-01-15T02:48:10;10.00;99.90
6018;DHT22;3037;51.068;13.780;2023-01-15T02:50:41;10.10;99.90
6018;DHT22;3037;51.068;13.780;2023-01-15T02:53:12;10.10;99.90
6018;DHT22;3037;51.068;13.780;2023-01-15T02:55:42;10.10;99.90
6018;DHT22;3037;51.068;13.780;2023-01-15T02:58:11;10.10;99.90
6018;DHT22;3037;51.068;13.780;2023-01-15T03:00:40;10.20;99.90
6018;DHT22;3037;51.068;13.780;2023-01-15T03:03:15;10.20;99.90
6018;DHT22;3037;51.068;13.780;2023-01-15T03:05:56;10.20;99.90
6018;DHT22;3037;51.068;13.780;2023-01-15T03:08:24;10.20;99.90
6018;DHT22;3037;51.068;13.780;2023-01-15T03:11:08;10.30;99.90
6018;DHT22;3037;51.068;13.780;2023-01-15T03:13:51;10.30;99.90
6018;DHT22;3037;51.068;13.780;2023-01-15T03:16:33;10.30;99.90
6018;DHT22;3037;51.068;13.780;2023-01-15T03:19:14;10.20;99.90
6018;DHT22;3037;51.068;13.780;2023-01-15T03:21:57;10.20;99.90
6018;DHT22;3037;51.068;13.780;2023-01-15T03:26:55;10.40;99.90
6018;DHT22;3037;51.068;13.780;2023-01-15T03:29:23;10.50;99.90
6018;DHT22;3037;51.068;13.780;2023-01-15T03:31:49;10.60;99.90
6018;DHT22;3037;51.068;13.780;2023-01-15T03:34:15;10.60;99.90
6018;DHT22;3037;51.068;13.780;2023-01-15T03:36:40;10.50;99.90
6018;DHT22;3037;51.068;13.780;2023-01-15T03:39:06;10.60;99.90
6018;DHT22;3037;51.068;13.780;2023-01-15T03:44:56;10.50;99.90
6018;DHT22;3037;51.068;13.780;2023-01-15T03:47:50;10.50;99.90
6018;DHT22;3037;51.068;13.780;2023-01-15T03:50:40;10.30;99.90
6018;DHT22;3037;51.068;13.780;2023-01-15T03:53:48;10.20;99.90
6018;DHT22;3037;51.068;13.780;2023-01-15T04:01:37;10.10;99.90
6018;DHT22;3037;51.068;13.780;2023-01-15T04:04:04;10.10;99.90
6018;DHT22;3037;51.068;13.780;2023-01-15T04:06:33;10.10;99.90
6018;DHT22;3037;51.068;13.780;2023-01-15T04:09:00;10.10;99.90
6018;DHT22;3037;51.068;13.780;2023-01-15T04:11:27;10.20;99.90
6018;DHT22;3037;51.068;13.780;2023-01-15T04:13:53;10.20;99.90
6018;DHT22;3037;51.068;13.780;2023-01-15T04:16:27;10.20;99.90
6018;DHT22;3037;51.068;13.780;2023-01-15T04:18:53;10.20;99.90
6018;DHT22;3037;51.068;13.780;2023-01-15T04:21:19;10.20;99.90
6018;DHT22;3037;51.068;13.780;2023-01-15T04:23:45;10.20;99.90
6018;DHT22;3037;51.068;13.780;2023-01-15T04:26:11;10.20;99.90
6018;DHT22;3037;51.068;13.780;2023-01-15T04:28:37;10.20;99.90
6018;DHT22;3037;51.068;13.780;2023-01-15T04:31:03;10.10;99.90
6018;DHT22;3037;51.068;13.780;2023-01-15T04:33:28;10.10;99.90
6018;DHT22;3037;51.068;13.780;2023-01-15T04:35:54;10.10;99.90
6018;DHT22;3037;51.068;13.780;2023-01-15T04:38:19;10.00;99.90
6018;DHT22;3037;51.068;13.780;2023-01-15T04:40:45;10.00;99.90
6018;DHT22;3037;51.068;13.780;2023-01-15T04:43:36;10.00;99.90
6018;DHT22;3037;51.068;13.780;2023-01-15T04:46:22;10.00;99.90
6018;DHT22;3037;51.068;13.780;2023-01-15T04:48:48;10.10;99.90
6018;DHT22;3037;51.068;13.780;2023-01-15T04:51:14;10.00;99.90
6018;DHT22;3037;51.068;13.780;2023-01-15T04:53:39;10.00;99.90
6018;DHT22;3037;51.068;13.780;2023-01-15T04:56:05;10.00;99.90
6018;DHT22;3037;51.068;13.780;2023-01-15T04:58:32;10.00;99.90
6018;DHT22;3037;51.068;13.780;2023-01-15T05:00:58;10.10;99.90
6018;DHT22;3037;51.068;13.780;2023-01-15T05:03:30;10.10;99.90
6018;DHT22;3037;51.068;13.780;2023-01-15T05:06:00;10.10;99.90
6018;DHT22;3037;51.068;13.780;2023-01-15T05:08:26;10.00;99.90
6018;DHT22;3037;51.068;13.780;2023-01-15T05:10:52;10.10;99.90
6018;DHT22;3037;51.068;13.780;2023-01-15T05:13:17;10.00;99.90
6018;DHT22;3037;51.068;13.780;2023-01-15T05:15:43;10.10;99.90
6018;DHT22;3037;51.068;13.780;2023-01-15T05:18:11;10.10;99.90
6018;DHT22;3037;51.068;13.780;2023-01-15T05:20:39;10.00;99.90
6018;DHT22;3037;51.068;13.780;2023-01-15T05:23:05;10.00;99.90
6018;DHT22;3037;51.068;13.780;2023-01-15T05:25:30;10.00;99.90
6018;DHT22;3037;51.068;13.780;2023-01-15T05:27:56;10.00;99.90
6018;DHT22;3037;51.068;13.780;2023-01-15T05:30:21;10.10;99.90
6018;DHT22;3037;51.068;13.780;2023-01-15T05:32:47;10.10;99.90
6018;DHT22;3037;51.068;13.780;2023-01-15T05:35:12;10.00;99.90
6018;DHT22;3037;51.068;13.780;2023-01-15T05:37:38;10.00;99.90
6018;DHT22;3037;51.068;13.780;2023-01-15T05:40:04;10.00;99.90
6018;DHT22;3037;51.068;13.780;2023-01-15T05:42:29;10.00;99.90
6018;DHT22;3037;51.068;13.780;2023-01-15T05:44:55;10.00;99.90
6018;DHT22;3037;51.068;13.780;2023-01-15T05:47:20;10.10;99.90
6018;DHT22;3037;51.068;13.780;2023-01-15T05:49:46;10.00;99.90
6018;DHT22;3037;51.068;13.780;2023-01-15T05:52:14;10.10;99.90
6018;DHT22;3037;51.068;13.780;2023-01-15T05:54:40;10.10;99.90
6018;DHT22;3037;51.068;13.780;2023-01-15T05:57:06;10.10;99.90
6018;DHT22;3037;51.068;13.780;2023-01-15T05:59:34;10.20;99.90
6018;DHT22;3037;51.068;13.780;2023-01-15T06:02:00;10.20;99.90
6018;DHT22;3037;51.068;13.780;2023-01-15T06:04:25;10.10;99.90
6018;DHT22;3037;51.068;13.780;2023-01-15T06:06:52;10.20;99.90
6018;DHT22;3037;51.068;13.780;2023-01-15T06:09:18;10.20;99.90
6018;DHT22;3037;51.068;13.780;2023-01-15T06:11:44;10.20;99.90
6018;DHT22;3037;51.068;13.780;2023-01-15T06:14:14;10.10;99.90
6018;DHT22;3037;51.068;13.780;2023-01-15T06:16:40;10.10;99.90
6018;DHT22;3037;51.068;13.780;2023-01-15T06:19:06;10.10;99.90
6018;DHT22;3037;51.068;13.780;2023-01-15T06:21:33;10.10;99.90
6018;DHT22;3037;51.068;13.780;2023-01-15T06:23:59;10.20;99.90
6018;DHT22;3037;51.068;13.780;2023-01-15T06:26:25;10.10;99.90
6018;DHT22;3037;51.068;13.780;2023-01-15T06:28:51;10.00;99.90
6018;DHT22;3037;51.068;13.780;2023-01-15T06:31:19;10.20;99.90
6018;DHT22;3037;51.068;13.780;2023-01-15T06:33:45;10.20;99.90
6018;DHT22;3037;51.068;13.780;2023-01-15T06:36:16;10.20;99.90
6018;DHT22;3037;51.068;13.780;2023-01-15T06:38:43;10.20;99.90
6018;DHT22;3037;51.068;13.780;2023-01-15T06:41:15;10.20;99.90
6018;DHT22;3037;51.068;13.780;2023-01-15T06:44:00;10.30;99.90
6018;DHT22;3037;51.068;13.780;2023-01-15T06:46:46;10.30;99.90
6018;DHT22;3037;51.068;13.780;2023-01-15T06:49:31;10.10;99.90
6018;DHT22;3037;51.068;13.780;2023-01-15T06:51:56;9.90;99.90
6018;DHT22;3037;51.068;13.780;2023-01-15T06:54:22;9.90;99.90
6018;DHT22;3037;51.068;13.780;2023-01-15T06:56:47;9.60;99.90
6018;DHT22;3037;51.068;13.780;2023-01-15T06:59:13;9.20;99.90
6018;DHT22;3037;51.068;13.780;2023-01-15T07:01:38;8.70;99.90
6018;DHT22;3037;51.068;13.780;2023-01-15T07:04:04;8.30;99.90
6018;DHT22;3037;51.068;13.780;2023-01-15T07:06:30;8.20;99.90
6018;DHT22;3037;51.068;13.780;2023-01-15T07:08:55;8.00;99.90
6018;DHT22;3037;51.068;13.780;2023-01-15T07:11:21;7.80;99.90
6018;DHT22;3037;51.068;13.780;2023-01-15T07:13:46;7.50;99.90
6018;DHT22;3037;51.068;13.780;2023-01-15T07:16:13;7.50;99.90
6018;DHT22;3037;51.068;13.780;2023-01-15T07:18:54;7.70;99.90
6018;DHT22;3037;51.068;13.780;2023-01-15T07:21:21;7.50;99.90
6018;DHT22;3037;51.068;13.780;2023-01-15T07:23:47;7.50;99.90
6018;DHT22;3037;51.068;13.780;2023-01-15T07:26:12;7.50;99.90
6018;DHT22;3037;51.068;13.780;2023-01-15T07:28:38;7.70;99.90
6018;DHT22;3037;51.068;13.780;2023-01-15T07:31:04;7.60;99.90
6018;DHT22;3037;51.068;13.780;2023-01-15T07:33:29;7.60;99.90
6018;DHT22;3037;51.068;13.780;2023-01-15T07:35:55;7.50;99.90
6018;DHT22;3037;51.068;13.780;2023-01-15T07:38:21;7.40;99.90
6018;DHT22;3037;51.068;13.780;2023-01-15T07:40:47;7.50;99.90
6018;DHT22;3037;51.068;13.780;2023-01-15T07:43:32;7.60;99.90
6018;DHT22;3037;51.068;13.780;2023-01-15T07:46:16;7.60;99.90
6018;DHT22;3037;51.068;13.780;2023-01-15T07:49:00;7.60;99.90
6018;DHT22;3037;51.068;13.780;2023-01-15T07:51:44;7.50;99.90
6018;DHT22;3037;51.068;13.780;2023-01-15T07:54:10;7.40;99.90
6018;DHT22;3037;51.068;13.780;2023-01-15T07:56:36;7.30;99.90
6018;DHT22;3037;51.068;13.780;2023-01-15T07:59:01;7.40;99.90
6018;DHT22;3037;51.068;13.780;2023-01-15T08:01:27;7.50;99.90
6018;DHT22;3037;51.068;13.780;2023-01-15T08:03:52;7.50;99.90
6018;DHT22;3037;51.068;13.780;2023-01-15T08:06:18;7.40;99.90
6018;DHT22;3037;51.068;13.780;2023-01-15T08:08:43;7.50;99.90
6018;DHT22;3037;51.068;13.780;2023-01-15T08:11:09;7.40;99.90
6018;DHT22;3037;51.068;13.780;2023-01-15T08:13:53;7.40;99.90
6018;DHT22;3037;51.068;13.780;2023-01-15T08:16:37;7.10;99.90
6018;DHT22;3037;51.068;13.780;2023-01-15T08:19:03;7.30;99.90
6018;DHT22;3037;51.068;13.780;2023-01-15T08:21:28;7.10;99.90
6018;DHT22;3037;51.068;13.780;2023-01-15T08:23:54;7.30;99.90
6018;DHT22;3037;51.068;13.780;2023-01-15T08:26:19;7.10;99.90
6018;DHT22;3037;51.068;13.780;2023-01-15T08:28:45;7.20;99.90
6018;DHT22;3037;51.068;13.780;2023-01-15T08:31:10;7.20;99.90
6018;DHT22;3037;51.068;13.780;2023-01-15T08:33:36;7.20;99.90
6018;DHT22;3037;51.068;13.780;2023-01-15T08:36:01;7.10;99.90
6018;DHT22;3037;51.068;13.780;2023-01-15T08:38:27;7.10;99.90
6018;DHT22;3037;51.068;13.780;2023-01-15T08:40:53;7.10;99.90
6018;DHT22;3037;51.068;13.780;2023-01-15T08:43:30;6.90;99.90
6018;DHT22;3037;51.068;13.780;2023-01-15T08:45:58;7.60;99.90
6018;DHT22;3037;51.068;13.780;2023-01-15T08:48:25;7.70;99.90
6018;DHT22;3037;51.068;13.780;2023-01-15T08:50:51;7.30;99.90
6018;DHT22;3037;51.068;13.780;2023-01-15T08:53:17;7.20;99.90
6018;DHT22;3037;51.068;13.780;2023-01-15T08:55:47;7.20;99.90
6018;DHT22;3037;51.068;13.780;2023-01-15T08:58:12;7.20;99.90
6018;DHT22;3037;51.068;13.780;2023-01-15T09:00:38;7.10;99.90
6018;DHT22;3037;51.068;13.780;2023-01-15T09:03:04;7.30;99.90
6018;DHT22;3037;51.068;13.780;2023-01-15T09:05:29;7.30;99.90
6018;DHT22;3037;51.068;13.780;2023-01-15T09:07:55;7.40;99.90
6018;DHT22;3037;51.068;13.780;2023-01-15T09:10:21;7.10;99.90
6018;DHT22;3037;51.068;13.780;2023-01-15T09:12:47;7.10;99.90
6018;DHT22;3037;51.068;13.780;2023-01-15T09:15:13;7.30;99.90
6018;DHT22;3037;51.068;13.780;2023-01-15T09:17:38;7.30;99.90
6018;DHT22;3037;51.068;13.780;2023-01-15T09:20:07;7.20;99.90
6018;DHT22;3037;51.068;13.780;2023-01-15T09:22:33;7.10;99.90
6018;DHT22;3037;51.068;13.780;2023-01-15T09:24:58;7.20;99.90
6018;DHT22;3037;51.068;13.780;2023-01-15T09:27:25;7.30;99.90
6018;DHT22;3037;51.068;13.780;2023-01-15T09:29:51;7.30;99.90
6018;DHT22;3037;51.068;13.780;2023-01-15T09:32:16;7.10;99.90
6018;DHT22;3037;51.068;13.780;2023-01-15T09:34:42;7.30;99.90
6018;DHT22;3037;51.068;13.780;2023-01-15T09:37:07;7.30;99.90
6018;DHT22;3037;51.068;13.780;2023-01-15T09:39:33;7.30;99.90
6018;DHT22;3037;51.068;13.780;2023-01-15T09:50:34;7.40;99.90
6018;DHT22;3037;51.068;13.780;2023-01-15T09:53:29;7.40;99.90
6018;DHT22;3037;51.068;13.780;2023-01-15T09:55:57;7.30;99.90
6018;DHT22;3037;51.068;13.780;2023-01-15T09:58:36;7.20;99.90
6018;DHT22;3037;51.068;13.780;2023-01-15T10:01:03;7.20;99.90
6018;DHT22;3037;51.068;13.780;2023-01-15T10:03:46;7.20;99.90
6018;DHT22;3037;51.068;13.780;2023-01-15T10:06:27;7.10;99.90
6018;DHT22;3037;51.068;13.780;2023-01-15T10:09:17;7.10;99.90
6018;DHT22;3037;51.068;13.780;2023-01-15T10:11:55;6.90;99.90
6018;DHT22;3037;51.068;13.780;2023-01-15T10:15:34;7.40;99.90
6018;DHT22;3037;51.068;13.780;2023-01-15T10:17:54;7.30;99.90
6018;DHT22;3037;51.068;13.780;2023-01-15T10:25:46;7.30;99.90
6018;DHT22;3037;51.068;13.780;2023-01-15T10:28:28;7.20;99.90
6018;DHT22;3037;51.068;13.780;2023-01-15T10:30:55;7.20;99.90
6018;DHT22;3037;51.068;13.780;2023-01-15T10:36:14;7.20;99.90
6018;DHT22;3037;51.068;13.780;2023-01-15T10:39:25;7.20;99.90
6018;DHT22;3037;51.068;13.780;2023-01-15T10:41:42;7.40;99.90
6018;DHT22;3037;51.068;13.780;2023-01-15T10:44:22;7.50;99.90
6018;DHT22;3037;51.068;13.780;2023-01-15T10:46:55;7.50;99.90
6018;DHT22;3037;51.068;13.780;2023-01-15T10:49:27;7.60;99.90
6018;DHT22;3037;51.068;13.780;2023-01-15T10:52:06;7.70;99.90
6018;DHT22;3037;51.068;13.780;2023-01-15T10:54:43;7.70;99.90
6018;DHT22;3037;51.068;13.780;2023-01-15T10:57:19;7.70;99.90
6018;DHT22;3037;51.068;13.780;2023-01-15T10:59:52;7.70;99.90
6018;DHT22;3037;51.068;13.780;2023-01-15T11:02:27;7.50;99.90
6018;DHT22;3037;51.068;13.780;2023-01-15T11:04:55;7.70;99.90
6018;DHT22;3037;51.068;13.780;2023-01-15T11:07:25;7.70;99.90
6018;DHT22;3037;51.068;13.780;2023-01-15T11:10:05;7.70;99.90
6018;DHT22;3037;51.068;13.780;2023-01-15T11:12:31;7.70;99.90
6018;DHT22;3037;51.068;13.780;2023-01-15T11:15:22;7.80;99.90
6018;DHT22;3037;51.068;13.780;2023-01-15T11:18:23;7.60;99.90
6018;DHT22;3037;51.068;13.780;2023-01-15T11:21:20;7.70;99.90
6018;DHT22;3037;51.068;13.780;2023-01-15T11:23:47;7.70;99.90
6018;DHT22;3037;51.068;13.780;2023-01-15T11:26:27;7.60;99.90
6018;DHT22;3037;51.068;13.780;2023-01-15T11:28:54;7.70;99.90
6018;DHT22;3037;51.068;13.780;2023-01-15T11:31:21;7.70;99.90
6018;DHT22;3037;51.068;13.780;2023-01-15T11:34:01;7.70;99.90
6018;DHT22;3037;51.068;13.780;2023-01-15T11:36:28;7.60;99.90
6018;DHT22;3037;51.068;13.780;2023-01-15T11:38:55;7.60;99.90
6018;DHT22;3037;51.068;13.780;2023-01-15T11:44:11;7.70;99.90
6018;DHT22;3037;51.068;13.780;2023-01-15T11:46:55;7.60;99.90
6018;DHT22;3037;51.068;13.780;2023-01-15T11:49:52;7.60;99.90
6018;DHT22;3037;51.068;13.780;2023-01-15T11:52:41;7.70;99.90
6018;DHT22;3037;51.068;13.780;2023-01-15T11:55:12;7.60;99.90
6018;DHT22;3037;51.068;13.780;2023-01-15T11:57:38;7.60;99.90
6018;DHT22;3037;51.068;13.780;2023-01-15T12:00:05;7.60;99.90
6018;DHT22;3037;51.068;13.780;2023-01-15T12:02:35;7.60;99.90
6018;DHT22;3037;51.068;13.780;2023-01-15T12:05:12;7.60;99.90
6018;DHT22;3037;51.068;13.780;2023-01-15T12:07:39;7.50;99.90
6018;DHT22;3037;51.068;13.780;2023-01-15T12:13:04;7.50;99.90
6018;DHT22;3037;51.068;13.780;2023-01-15T12:15:42;7.70;99.90
6018;DHT22;3037;51.068;13.780;2023-01-15T12:21:53;7.80;99.90
6018;DHT22;3037;51.068;13.780;2023-01-15T12:24:41;7.80;99.90
6018;DHT22;3037;51.068;13.780;2023-01-15T12:27:31;7.90;99.90
6018;DHT22;3037;51.068;13.780;2023-01-15T12:32:40;8.00;99.90
6018;DHT22;3037;51.068;13.780;2023-01-15T12:35:27;8.10;99.90
6018;DHT22;3037;51.068;13.780;2023-01-15T12:37:57;8.00;99.90
6018;DHT22;3037;51.068;13.780;2023-01-15T12:40:28;8.10;99.90
6018;DHT22;3037;51.068;13.780;2023-01-15T12:42:55;8.10;99.90
6018;DHT22;3037;51.068;13.780;2023-01-15T12:45:44;8.20;99.90
6018;DHT22;3037;51.068;13.780;2023-01-15T12:48:35;8.10;99.90
6018;DHT22;3037;51.068;13.780;2023-01-15T12:51:03;8.20;99.90
6018;DHT22;3037;51.068;13.780;2023-01-15T12:53:43;8.10;99.90
6018;DHT22;3037;51.068;13.780;2023-01-15T12:56:20;8.20;99.90
6018;DHT22;3037;51.068;13.780;2023-01-15T12:59:13;8.10;99.90
6018;DHT22;3037;51.068;13.780;2023-01-15T13:04:52;8.40;99.90
6018;DHT22;3037;51.068;13.780;2023-01-15T13:07:21;8.40;99.90
6018;DHT22;3037;51.068;13.780;2023-01-15T13:09:59;8.50;99.90
6018;DHT22;3037;51.068;13.780;2023-01-15T13:12:28;8.80;99.90
6018;DHT22;3037;51.068;13.780;2023-01-15T13:14:54;8.50;99.90
6018;DHT22;3037;51.068;13.780;2023-01-15T13:20:29;8.30;99.90
6018;DHT22;3037;51.068;13.780;2023-01-15T13:26:01;8.10;99.90
6018;DHT22;3037;51.068;13.780;2023-01-15T13:33:44;8.20;99.90
6018;DHT22;3037;51.068;13.780;2023-01-15T13:36:27;8.30;99.90
6018;DHT22;3037;51.068;13.780;2023-01-15T13:39:00;8.30;99.80
6018;DHT22;3037;51.068;13.780;2023-01-15T13:41:30;8.30;99.90
6018;DHT22;3037;51.068;13.780;2023-01-15T13:44:21;8.20;99.90
6018;DHT22;3037;51.068;13.780;2023-01-15T13:47:04;8.00;99.90
6018;DHT22;3037;51.068;13.780;2023-01-15T13:49:34;8.00;99.90
6018;DHT22;3037;51.068;13.780;2023-01-15T13:52:04;7.90;99.90
6018;DHT22;3037;51.068;13.780;2023-01-15T13:54:33;7.80;99.70
6018;DHT22;3037;51.068;13.780;2023-01-15T13:57:08;8.00;99.80
6018;DHT22;3037;51.068;13.780;2023-01-15T13:59:37;8.00;99.30
6018;DHT22;3037;51.068;13.780;2023-01-15T14:02:37;7.90;99.70
6018;DHT22;3037;51.068;13.780;2023-01-15T14:05:33;8.00;97.50
6018;DHT22;3037;51.068;13.780;2023-01-15T14:08:00;8.10;96.50
6018;DHT22;3037;51.068;13.780;2023-01-15T14:18:43;8.10;95.60
6018;DHT22;3037;51.068;13.780;2023-01-15T14:21:30;8.20;94.60
6018;DHT22;3037;51.068;13.780;2023-01-15T14:26:56;8.00;91.80
6018;DHT22;3037;51.068;13.780;2023-01-15T14:32:13;7.80;93.00
6018;DHT22;3037;51.068;13.780;2023-01-15T14:34:53;7.70;94.60
6018;DHT22;3037;51.068;13.780;2023-01-15T14:37:26;7.70;93.80
6018;DHT22;3037;51.068;13.780;2023-01-15T14:39:56;7.60;93.50
6018;DHT22;3037;51.068;13.780;2023-01-15T14:45:28;7.30;94.20
6018;DHT22;3037;51.068;13.780;2023-01-15T14:48:00;7.30;95.10
6018;DHT22;3037;51.068;13.780;2023-01-15T14:50:38;7.20;95.90
6018;DHT22;3037;51.068;13.780;2023-01-15T14:59:02;7.10;97.60
6018;DHT22;3037;51.068;13.780;2023-01-15T15:01:53;6.90;98.10
6018;DHT22;3037;51.068;13.780;2023-01-15T15:04:21;6.90;98.70
6018;DHT22;3037;51.068;13.780;2023-01-15T15:06:53;6.80;99.90
6018;DHT22;3037;51.068;13.780;2023-01-15T15:14:48;6.70;99.90
6018;DHT22;3037;51.068;13.780;2023-01-15T15:17:25;6.70;99.90
6018;DHT22;3037;51.068;13.780;2023-01-15T15:20:02;6.70;99.90
6018;DHT22;3037;51.068;13.780;2023-01-15T15:22:31;6.50;99.90
6018;DHT22;3037;51.068;13.780;2023-01-15T15:25:00;6.50;99.90
6018;DHT22;3037;51.068;13.780;2023-01-15T15:27:30;6.70;99.90
6018;DHT22;3037;51.068;13.780;2023-01-15T15:30:06;6.60;99.90
6018;DHT22;3037;51.068;13.780;2023-01-15T15:32:32;6.60;99.90
6018;DHT22;3037;51.068;13.780;2023-01-15T15:35:05;6.50;99.90
6018;DHT22;3037;51.068;13.780;2023-01-15T15:37:43;6.50;99.80
6018;DHT22;3037;51.068;13.780;2023-01-15T15:40:16;6.40;99.00
6018;DHT22;3037;51.068;13.780;2023-01-15T15:42:54;6.50;96.70
6018;DHT22;3037;51.068;13.780;2023-01-15T15:45:51;6.40;97.70
6018;DHT22;3037;51.068;13.780;2023-01-15T15:48:35;6.50;96.30
6018;DHT22;3037;51.068;13.780;2023-01-15T15:51:28;6.40;97.40
6018;DHT22;3037;51.068;13.780;2023-01-15T15:54:05;6.30;97.00
6018;DHT22;3037;51.068;13.780;2023-01-15T15:56:34;6.20;97.60
6018;DHT22;3037;51.068;13.780;2023-01-15T15:59:00;6.10;97.80
6018;DHT22;3037;51.068;13.780;2023-01-15T16:01:26;6.10;97.90
6018;DHT22;3037;51.068;13.780;2023-01-15T16:03:52;6.10;98.10
6018;DHT22;3037;51.068;13.780;2023-01-15T16:06:26;6.20;99.90
6018;DHT22;3037;51.068;13.780;2023-01-15T16:08:54;6.80;99.90
6018;DHT22;3037;51.068;13.780;2023-01-15T16:11:23;6.50;99.90
6018;DHT22;3037;51.068;13.780;2023-01-15T16:13:50;6.30;98.80
6018;DHT22;3037;51.068;13.780;2023-01-15T16:16:17;6.30;99.90
6018;DHT22;3037;51.068;13.780;2023-01-15T16:18:49;6.30;99.90
6018;DHT22;3037;51.068;13.780;2023-01-15T16:21:18;6.20;98.90
6018;DHT22;3037;51.068;13.780;2023-01-15T16:23:56;6.20;97.40
6018;DHT22;3037;51.068;13.780;2023-01-15T16:26:23;6.20;99.90
6018;DHT22;3037;51.068;13.780;2023-01-15T16:28:56;6.20;97.70
6018;DHT22;3037;51.068;13.780;2023-01-15T16:31:21;6.30;99.90
6018;DHT22;3037;51.068;13.780;2023-01-15T16:33:57;6.30;99.90
6018;DHT22;3037;51.068;13.780;2023-01-15T16:36:25;6.10;98.40
6018;DHT22;3037;51.068;13.780;2023-01-15T16:38:51;6.00;97.90
6018;DHT22;3037;51.068;13.780;2023-01-15T16:41:26;6.30;99.90
6018;DHT22;3037;51.068;13.780;2023-01-15T16:43:55;6.10;97.30
6018;DHT22;3037;51.068;13.780;2023-01-15T16:46:24;6.00;98.50
6018;DHT22;3037;51.068;13.780;2023-01-15T16:49:18;6.20;99.90
6018;DHT22;3037;51.068;13.780;2023-01-15T16:51:45;6.30;99.90
6018;DHT22;3037;51.068;13.780;2023-01-15T16:57:04;6.10;99.90
6018;DHT22;3037;51.068;13.780;2023-01-15T16:59:58;6.00;99.70
6018;DHT22;3037;51.068;13.780;2023-01-15T17:02:25;5.90;99.80
6018;DHT22;3037;51.068;13.780;2023-01-15T17:04:54;7.80;99.90
6018;DHT22;3037;51.068;13.780;2023-01-15T17:07:38;7.30;99.90
6018;DHT22;3037;51.068;13.780;2023-01-15T17:10:05;6.80;99.90
6018;DHT22;3037;51.068;13.780;2023-01-15T17:12:42;6.50;95.70
6018;DHT22;3037;51.068;13.780;2023-01-15T17:17:42;6.20;96.70
6018;DHT22;3037;51.068;13.780;2023-01-15T17:20:10;6.00;96.30
6018;DHT22;3037;51.068;13.780;2023-01-15T17:22:38;5.80;98.00
6018;DHT22;3037;51.068;13.780;2023-01-15T17:27:48;5.60;99.90
6018;DHT22;3037;51.068;13.780;2023-01-15T17:30:15;5.50;99.90
6018;DHT22;3037;51.068;13.780;2023-01-15T17:32:41;5.40;99.90
6018;DHT22;3037;51.068;13.780;2023-01-15T17:35:20;5.30;99.90
6018;DHT22;3037;51.068;13.780;2023-01-15T17:37:47;5.30;99.90
6018;DHT22;3037;51.068;13.780;2023-01-15T17:40:12;5.20;99.90
6018;DHT22;3037;51.068;13.780;2023-01-15T17:42:38;5.20;99.90
6018;DHT22;3037;51.068;13.780;2023-01-15T17:45:04;5.20;99.90
6018;DHT22;3037;51.068;13.780;2023-01-15T17:47:29;5.20;99.90
6018;DHT22;3037;51.068;13.780;2023-01-15T17:49:55;5.00;99.90
6018;DHT22;3037;51.068;13.780;2023-01-15T17:52:20;5.00;99.90
6018;DHT22;3037;51.068;13.780;2023-01-15T17:54:46;5.10;99.90
6018;DHT22;3037;51.068;13.780;2023-01-15T17:57:30;5.30;97.20
6018;DHT22;3037;51.068;13.780;2023-01-15T18:00:14;5.30;97.90
6018;DHT22;3037;51.068;13.780;2023-01-15T18:02:59;5.40;96.70